Time;durP1;ratioP1;P1;durP2;ratioP2;P2;SDS_P1;SDS_P2;PMS_P1;PMS_P2;Temp;Humidity;BMP_temperature;BMP_pressure;BME280_temperature;BME280_humidity;BME280_pressure;Samples;Min_cycle;Max_cycle;Signal;HPM_P1;HPM_P2
2022/09/07 05:26:28;;;;;;;7.85;1.50;;;21.30;73.70;;;;;;6187809;23;20447;-79
2022/09/07 05:28:54;;;;;;;7.85;1.27;;;21.30;73.60;;;;;;6216053;23;20035;-75
2022/09/07 05:31:22;;;;;;;4.32;1.40;;;21.30;73.80;;;;;;6217437;23;20009;-78
2022/09/07 05:33:52;;;;;;;9.00;2.17;;;21.30;73.80;;;;;;6191962;23;20341;-81
2022/09/07 05:36:19;;;;;;;4.75;1.50;;;21.40;73.90;;;;;;6218219;23;20028;-80
2022/09/07 05:38:46;;;;;;;8.27;2.08;;;21.40;73.80;;;;;;6217910;23;20501;-77
2022/09/07 05:41:18;;;;;;;8.05;1.83;;;21.30;73.90;;;;;;6218004;23;20040;-80
2022/09/07 05:43:56;;;;;;;8.48;1.45;;;21.40;74.30;;;;;;6217098;23;20016;-78
2022/09/07 05:46:22;;;;;;;10.27;2.40;;;21.40;74.20;;;;;;6218204;23;20009;-78
2022/09/07 05:48:48;;;;;;;10.10;2.22;;;21.40;74.20;;;;;;6218186;23;20028;-79
2022/09/07 05:51:15;;;;;;;10.48;2.55;;;21.30;74.10;;;;;;6217783;23;20043;-79
2022/09/07 05:53:43;;;;;;;9.43;2.28;;;21.40;74.30;;;;;;6218013;23;20020;-78
2022/09/07 05:56:09;;;;;;;7.22;2.10;;;21.40;74.40;;;;;;6217960;23;20020;-78
2022/09/07 05:58:38;;;;;;;9.15;2.78;;;21.40;74.30;;;;;;6191619;23;20040;-79
2022/09/07 06:45:54;;;;;;;4.88;3.13;;;21.20;74.90;;;;;;6217412;23;20040;-74
2022/09/07 06:48:20;;;;;;;4.32;3.10;;;21.10;74.80;;;;;;6190193;23;20012;-78
2022/09/07 06:51:00;;;;;;;8.50;3.85;;;21.10;75.00;;;;;;6217804;23;20021;-80
2022/09/07 06:53:28;;;;;;;5.93;3.70;;;21.10;74.90;;;;;;6217732;23;20274;-77
2022/09/07 06:55:54;;;;;;;5.55;4.03;;;21.00;75.00;;;;;;6217717;23;20025;-76
2022/09/07 06:58:20;;;;;;;5.72;4.38;;;21.00;74.90;;;;;;6217322;23;20043;-80
2022/09/07 07:00:46;;;;;;;5.63;4.30;;;20.90;75.00;;;;;;6217599;23;20028;-77
2022/09/07 07:03:12;;;;;;;5.18;4.20;;;20.90;75.20;;;;;;6217708;23;20087;-78
2022/09/07 07:05:38;;;;;;;6.05;5.20;;;20.90;75.60;;;;;;6217596;23;20020;-78
2022/09/07 07:08:04;;;;;;;5.82;5.22;;;20.90;75.30;;;;;;6217073;23;20016;-78
2022/09/07 07:10:29;;;;;;;6.25;5.65;;;20.90;75.30;;;;;;6191407;23;20159;-77
2022/09/07 07:12:55;;;;;;;6.80;6.10;;;20.90;75.50;;;;;;6216633;23;20036;-77
2022/09/07 07:15:24;;;;;;;5.40;4.90;;;20.80;75.50;;;;;;6217506;23;20025;-77
2022/09/07 07:17:49;;;;;;;11.90;5.97;;;20.80;75.60;;;;;;6216493;23;20013;-78
2022/09/07 07:20:15;;;;;;;8.65;5.90;;;20.70;75.70;;;;;;6191264;23;20026;-78
2022/09/07 07:22:41;;;;;;;7.60;6.72;;;20.70;76.20;;;;;;6192106;23;20087;-77
2022/09/07 07:25:07;;;;;;;8.48;6.20;;;20.70;76.30;;;;;;6218165;23;20067;-76
2022/09/07 07:27:33;;;;;;;9.88;6.32;;;20.80;76.40;;;;;;6217375;23;20082;-76
2022/09/07 07:29:58;;;;;;;7.78;5.75;;;20.80;76.00;;;;;;6217173;23;20444;-76
2022/09/07 07:32:24;;;;;;;6.35;5.35;;;20.80;75.90;;;;;;6217019;23;20059;-76
2022/09/07 07:37:35;;;;;;;8.10;6.47;;;20.80;75.70;;;;;;6216946;23;20506;-77
2022/09/07 07:40:07;;;;;;;7.47;6.68;;;20.90;75.30;;;;;;6216842;23;20440;-77
2022/09/07 07:42:34;;;;;;;8.10;6.65;;;20.80;75.30;;;;;;6217435;23;20099;-75
2022/09/07 07:45:01;;;;;;;8.15;7.32;;;20.80;75.60;;;;;;6218456;23;20040;-76
2022/09/07 07:47:27;;;;;;;9.02;8.07;;;20.70;75.60;;;;;;6219212;23;20083;-74
2022/09/07 07:49:53;;;;;;;15.00;8.32;;;20.70;76.10;;;;;;6192394;23;20021;-76
2022/09/07 07:52:19;;;;;;;11.63;8.65;;;20.70;76.40;;;;;;6218890;23;20027;-76
2022/09/07 07:54:45;;;;;;;25.88;8.80;;;20.70;76.70;;;;;;6192804;23;20405;-75
2022/09/07 07:57:10;;;;;;;13.55;8.57;;;20.70;76.60;;;;;;6218559;23;20059;-78
2022/09/07 07:59:37;;;;;;;9.20;8.30;;;20.70;76.70;;;;;;6193253;23;20055;-76
2022/09/07 08:02:04;;;;;;;10.77;8.07;;;20.70;76.80;;;;;;6192511;23;20081;-75
2022/09/07 08:04:32;;;;;;;11.82;8.40;;;20.70;76.80;;;;;;6218187;23;20086;-77
2022/09/07 08:06:57;;;;;;;8.90;7.97;;;20.70;77.10;;;;;;6218823;23;20162;-78
2022/09/07 08:09:23;;;;;;;9.15;8.05;;;20.70;77.00;;;;;;6218151;23;20048;-83
2022/09/07 08:11:49;;;;;;;10.55;9.00;;;20.70;77.10;;;;;;6192259;23;20024;-83
2022/09/07 08:14:15;;;;;;;10.38;9.38;;;20.80;77.30;;;;;;6192775;23;20016;-82
2022/09/07 08:16:44;;;;;;;10.73;9.63;;;20.80;77.30;;;;;;6167799;23;20063;-81
2022/09/07 08:19:10;;;;;;;10.85;9.80;;;20.90;77.00;;;;;;6192475;23;20488;-82
2022/09/07 08:21:36;;;;;;;11.93;9.75;;;20.90;77.00;;;;;;6191967;23;20059;-81
2022/09/07 08:24:03;;;;;;;9.90;8.90;;;21.00;76.90;;;;;;6192810;23;20095;-81
2022/09/07 08:26:31;;;;;;;10.98;9.88;;;21.00;76.90;;;;;;6218815;23;20017;-77
2022/09/07 08:28:57;;;;;;;10.25;9.25;;;21.10;76.50;;;;;;6192352;23;20012;-80
2022/09/07 08:31:23;;;;;;;9.75;8.77;;;21.10;76.30;;;;;;6192036;23;20352;-80
2022/09/07 08:33:48;;;;;;;9.75;8.02;;;21.00;76.50;;;;;;6217079;23;20028;-79
2022/09/07 08:36:17;;;;;;;9.18;7.32;;;21.00;76.60;;;;;;6215691;23;20055;-79
2022/09/07 08:38:43;;;;;;;10.52;7.63;;;21.10;76.70;;;;;;6216402;23;20028;-74
2022/09/07 08:41:43;;;;;;;8.05;6.50;;;21.10;76.60;;;;;;6218557;23;20107;-78
2022/09/07 08:44:25;;;;;;;6.00;5.43;;;21.20;76.50;;;;;;6217881;23;20432;-80
2022/09/07 08:47:15;;;;;;;6.70;5.43;;;21.20;76.40;;;;;;6192036;23;20349;-80
2022/09/07 08:50:02;;;;;;;8.38;5.43;;;21.30;76.30;;;;;;6192376;23;20416;-78
2022/09/07 08:52:48;;;;;;;7.20;6.30;;;21.30;76.10;;;;;;6192641;23;20356;-79
2022/09/07 08:55:18;;;;;;;9.10;5.82;;;21.40;76.10;;;;;;6192225;23;20021;-80
2022/09/07 08:57:59;;;;;;;7.55;5.55;;;21.40;76.00;;;;;;6191840;23;20055;-81
2022/09/07 09:00:25;;;;;;;8.68;6.28;;;21.40;75.90;;;;;;6217664;23;20353;-79
2022/09/07 09:03:44;;;;;;;8.90;7.43;;;21.50;75.70;;;;;;6218094;23;20052;-86
2022/09/07 09:06:46;;;;;;;9.43;6.53;;;21.50;75.50;;;;;;6167347;23;20017;-80
2022/09/07 09:09:42;;;;;;;8.55;6.00;;;21.50;75.60;;;;;;6191661;23;20012;-82
2022/09/07 09:12:40;;;;;;;7.45;6.65;;;21.50;75.60;;;;;;6162423;23;20059;-80
2022/09/07 09:15:19;;;;;;;6.22;5.43;;;21.50;75.50;;;;;;6218309;23;20009;-79
2022/09/07 09:18:12;;;;;;;9.27;5.30;;;21.60;75.30;;;;;;6166859;23;20023;-82
2022/09/07 09:20:45;;;;;;;8.95;4.43;;;21.60;75.30;;;;;;6217643;23;20091;-83
2022/09/07 09:23:13;;;;;;;6.47;5.00;;;21.60;75.10;;;;;;6191750;23;20476;-83
2022/09/07 09:25:46;;;;;;;7.70;3.97;;;21.70;75.20;;;;;;6192501;23;20027;-83
2022/09/07 09:28:12;;;;;;;11.43;4.10;;;21.70;75.00;;;;;;6191806;23;20020;-82
2022/09/07 09:30:38;;;;;;;6.47;3.50;;;21.70;75.60;;;;;;6167088;23;20314;-84
2022/09/07 09:33:26;;;;;;;5.35;2.80;;;21.70;74.90;;;;;;6191846;23;20025;-80
2022/09/07 09:47:00;;;;;;;5.07;2.28;;;21.90;74.20;;;;;;6217326;22;20072;-82
2022/09/07 09:49:37;;;;;;;5.10;1.95;;;21.90;74.10;;;;;;6216745;23;20017;-84
2022/09/07 09:52:11;;;;;;;10.20;2.03;;;22.00;74.60;;;;;;6191895;23;20023;-85
2022/09/07 09:54:42;;;;;;;8.23;1.95;;;22.00;74.00;;;;;;6191609;23;20020;-81
2022/09/07 09:57:56;;;;;;;2.63;1.75;;;22.00;74.50;;;;;;6217809;23;20015;-81
2022/09/07 10:00:34;;;;;;;4.28;2.20;;;22.00;73.70;;;;;;6191401;23;20016;-83
2022/09/07 10:03:27;;;;;;;6.25;1.65;;;22.10;73.80;;;;;;6166288;23;20009;-85
2022/09/07 10:05:54;;;;;;;6.72;2.22;;;22.10;73.60;;;;;;6191224;23;20027;-83
2022/09/07 10:08:27;;;;;;;3.33;1.70;;;22.10;73.50;;;;;;6216367;23;20009;-84
2022/09/07 10:10:55;;;;;;;;;;;22.20;73.60;;;;;;6191623;23;20009;-84
2022/09/07 10:13:26;;;;;;;10.90;2.55;;;22.10;73.50;;;;;;6191116;23;20297;-85
2022/09/07 10:15:55;;;;;;;7.78;1.55;;;22.20;73.50;;;;;;6191721;23;20279;-84
2022/09/07 10:18:33;;;;;;;5.45;1.30;;;22.20;73.50;;;;;;6191666;23;20016;-82
2022/09/07 10:21:24;;;;;;;4.70;1.35;;;22.30;73.40;;;;;;6166431;23;20013;-81
2022/09/07 10:24:17;;;;;;;4.03;1.58;;;22.30;73.20;;;;;;6166425;23;20016;-82
2022/09/07 10:26:43;;;;;;;4.00;1.40;;;22.30;73.20;;;;;;6215530;23;20084;-80
2022/09/07 10:29:33;;;;;;;5.05;1.70;;;22.30;73.00;;;;;;6217404;23;20023;-80
2022/09/07 10:32:13;;;;;;;4.85;1.27;;;22.30;72.80;;;;;;6191599;23;20063;-83
2022/09/07 10:35:02;;;;;;;3.58;1.10;;;22.40;72.60;;;;;;6191392;23;20095;-81
2022/09/07 10:37:56;;;;;;;7.05;1.40;;;22.40;72.80;;;;;;6161481;23;20020;-80
2022/09/07 10:40:34;;;;;;;6.75;1.38;;;22.40;72.60;;;;;;6217526;23;20020;-79
2022/09/07 10:43:00;;;;;;;3.38;1.05;;;22.50;72.40;;;;;;6217505;23;20372;-79
2022/09/07 10:45:45;;;;;;;6.25;1.33;;;22.50;71.90;;;;;;6191733;23;20103;-79
2022/09/07 10:48:24;;;;;;;3.90;1.10;;;22.50;71.60;;;;;;6190726;23;20021;-79
2022/09/07 10:50:55;;;;;;;5.63;1.33;;;22.50;71.20;;;;;;6217267;23;20147;-79
2022/09/07 10:53:36;;;;;;;7.38;1.30;;;22.50;71.40;;;;;;6217572;23;20013;-80
2022/09/07 10:56:18;;;;;;;2.80;0.90;;;22.50;72.20;;;;;;6191473;23;20023;-78
2022/09/07 10:59:22;;;;;;;5.00;1.10;;;22.50;71.80;;;;;;6190803;23;20440;-79
2022/09/07 11:01:50;;;;;;;3.85;1.02;;;22.60;71.90;;;;;;6131227;23;20024;-79
2022/09/07 11:04:35;;;;;;;4.20;1.27;;;22.50;72.00;;;;;;6217089;23;20021;-78
2022/09/07 11:07:24;;;;;;;1.52;0.82;;;22.60;71.90;;;;;;6217400;23;20056;-79
2022/09/07 11:10:11;;;;;;;3.63;0.80;;;22.60;71.90;;;;;;6173124;23;20012;-80
2022/09/07 11:12:39;;;;;;;4.10;1.13;;;22.60;71.90;;;;;;6191008;23;20016;-81
2022/09/07 11:15:24;;;;;;;5.85;1.20;;;22.60;71.90;;;;;;6217762;23;20094;-78
2022/09/07 11:17:50;;;;;;;1.25;0.77;;;22.60;71.90;;;;;;6191184;23;20440;-78
2022/09/07 11:20:21;;;;;;;4.47;0.98;;;22.70;72.00;;;;;;6191842;23;20020;-80
2022/09/07 11:23:12;;;;;;;4.63;1.13;;;22.60;71.90;;;;;;6192903;23;20032;-78
2022/09/07 11:26:00;;;;;;;2.50;0.98;;;22.70;71.80;;;;;;6219098;23;20051;-79
2022/09/07 11:28:42;;;;;;;2.40;0.80;;;22.70;71.80;;;;;;6219292;23;20322;-78
2022/09/07 11:31:19;;;;;;;1.63;0.68;;;22.70;71.80;;;;;;6219677;23;20021;-79
2022/09/07 11:34:22;;;;;;;5.43;0.82;;;22.70;71.70;;;;;;6218546;23;20016;-78
2022/09/07 11:37:09;;;;;;;2.70;0.70;;;22.70;71.60;;;;;;6192888;23;20063;-78
2022/09/07 11:39:40;;;;;;;1.30;0.70;;;22.70;71.70;;;;;;6219414;23;20275;-79
2022/09/07 11:42:33;;;;;;;2.08;0.70;;;22.70;71.60;;;;;;6218910;23;20059;-79
2022/09/07 11:45:14;;;;;;;3.05;1.00;;;22.70;71.50;;;;;;6192667;23;20027;-79
2022/09/07 11:47:47;;;;;;;1.58;0.68;;;22.70;71.50;;;;;;6219059;23;20027;-79
2022/09/07 11:50:22;;;;;;;3.70;0.75;;;22.70;71.50;;;;;;6192881;23;20025;-79
2022/09/07 11:52:53;;;;;;;1.60;0.60;;;22.80;71.50;;;;;;6192271;23;20020;-79
2022/09/07 11:55:32;;;;;;;3.72;0.65;;;22.80;71.50;;;;;;6219169;23;20028;-78
2022/09/07 11:58:16;;;;;;;2.42;0.77;;;22.80;71.30;;;;;;6218745;23;20016;-79
2022/09/07 12:01:06;;;;;;;1.90;0.60;;;22.80;71.30;;;;;;6219131;23;20066;-79
2022/09/07 12:04:23;;;;;;;2.25;0.75;;;22.80;71.30;;;;;;6167696;23;20168;-80
2022/09/07 12:07:13;;;;;;;1.38;0.57;;;22.80;71.30;;;;;;6128140;23;20066;-78
2022/09/07 12:10:07;;;;;;;1.20;0.60;;;22.80;71.30;;;;;;6192532;23;20099;-80
2022/09/07 12:12:42;;;;;;;1.70;0.50;;;22.80;71.30;;;;;;6218557;23;20072;-79
2022/09/07 12:15:39;;;;;;;1.70;0.80;;;22.80;71.30;;;;;;6192544;23;20016;-81
2022/09/07 12:18:37;;;;;;;2.83;0.73;;;22.80;71.00;;;;;;6218965;23;20021;-79
2022/09/07 12:21:02;;;;;;;2.28;0.88;;;22.80;70.50;;;;;;6192311;23;20013;-80
2022/09/07 12:23:30;;;;;;;3.53;0.95;;;22.80;70.30;;;;;;6218799;23;20082;-84
2022/09/07 12:26:33;;;;;;;3.72;1.25;;;22.80;70.30;;;;;;6192123;23;20024;-79
2022/09/07 12:28:59;;;;;;;2.35;0.80;;;22.80;69.90;;;;;;6218516;23;20325;-78
2022/09/07 12:31:44;;;;;;;1.98;0.80;;;22.80;69.50;;;;;;6167609;23;20035;-79
2022/09/07 12:34:28;;;;;;;4.78;1.00;;;22.80;69.00;;;;;;6218614;23;20021;-80
2022/09/07 12:36:54;;;;;;;5.25;1.23;;;22.80;69.10;;;;;;6192713;23;20080;-78
2022/09/07 12:39:28;;;;;;;4.72;1.38;;;22.80;69.20;;;;;;6192728;23;20095;-79
2022/09/07 12:42:06;;;;;;;3.53;0.93;;;22.80;69.30;;;;;;6191991;23;20496;-80
2022/09/07 12:44:33;;;;;;;5.32;1.40;;;22.80;69.40;;;;;;6218912;23;20021;-78
2022/09/07 12:47:19;;;;;;;7.30;1.70;;;22.80;69.30;;;;;;6191949;23;20108;-77
2022/09/07 12:49:56;;;;;;;4.25;1.20;;;22.80;68.90;;;;;;6218638;23;20019;-78
2022/09/07 12:52:37;;;;;;;4.45;1.25;;;22.80;69.10;;;;;;6217951;23;20414;-80
2022/09/07 12:55:11;;;;;;;5.43;1.30;;;22.80;69.60;;;;;;6218476;23;20023;-81
2022/09/07 12:57:59;;;;;;;7.47;1.50;;;22.80;70.10;;;;;;6191799;23;20016;-79
2022/09/07 13:01:00;;;;;;;4.45;1.50;;;22.80;70.20;;;;;;6218016;23;20016;-79
2022/09/07 13:03:31;;;;;;;4.30;1.80;;;22.80;70.00;;;;;;6218482;23;20027;-82
2022/09/07 13:06:21;;;;;;;3.78;1.52;;;22.80;69.40;;;;;;6218022;23;20015;-78
2022/09/07 13:09:11;;;;;;;3.40;1.73;;;22.90;69.50;;;;;;6192691;23;20087;-78
2022/09/07 13:11:39;;;;;;;3.53;1.25;;;22.80;69.40;;;;;;6218311;23;20083;-79
2022/09/07 13:14:13;;;;;;;5.85;1.85;;;22.90;69.60;;;;;;6217937;23;20405;-78
2022/09/07 13:16:42;;;;;;;5.45;2.60;;;22.90;69.60;;;;;;6218764;23;20021;-80
2022/09/07 13:19:13;;;;;;;4.28;3.33;;;22.90;69.70;;;;;;6218008;23;20020;-76
2022/09/07 13:21:42;;;;;;;4.68;2.80;;;22.90;70.80;;;;;;6218970;23;20016;-79
2022/09/07 13:24:17;;;;;;;9.55;2.08;;;22.90;70.90;;;;;;6217790;23;20024;-79
2022/09/07 13:27:12;;;;;;;8.48;4.78;;;23.00;71.20;;;;;;6218232;23;20017;-81
2022/09/07 13:29:49;;;;;;;7.20;2.10;;;23.00;70.90;;;;;;6191645;23;20008;-81
2022/09/07 13:32:28;;;;;;;5.57;3.25;;;23.00;70.10;;;;;;6191785;23;20012;-82
2022/09/07 13:35:07;;;;;;;3.85;2.55;;;23.00;70.50;;;;;;6217095;23;20012;-81
2022/09/07 13:37:55;;;;;;;3.72;1.90;;;23.00;69.60;;;;;;6191621;23;20075;-81
2022/09/07 13:40:28;;;;;;;3.28;2.05;;;23.00;69.60;;;;;;6218046;23;20017;-79
2022/09/07 13:42:55;;;;;;;2.58;1.80;;;23.00;69.90;;;;;;6217871;23;20017;-79
2022/09/07 13:45:58;;;;;;;2.47;1.63;;;23.00;69.50;;;;;;6217908;23;20377;-77
2022/09/07 13:48:31;;;;;;;3.65;1.63;;;23.00;69.60;;;;;;6191596;23;20418;-79
2022/09/07 13:50:57;;;;;;;5.72;1.48;;;23.10;69.70;;;;;;6217856;23;20317;-80
2022/09/07 13:53:32;;;;;;;6.43;1.60;;;23.10;69.80;;;;;;6218104;23;20103;-80
2022/09/07 13:56:13;;;;;;;3.50;1.75;;;23.10;70.20;;;;;;6217886;23;20059;-79
2022/09/07 13:58:41;;;;;;;8.35;2.03;;;23.10;69.20;;;;;;6217610;23;20017;-79
2022/09/07 14:01:27;;;;;;;5.22;1.67;;;23.10;68.80;;;;;;6217715;23;20004;-79
2022/09/07 14:04:08;;;;;;;11.50;1.63;;;23.10;68.60;;;;;;6192061;23;20016;-81
2022/09/07 14:06:36;;;;;;;4.32;1.42;;;23.10;68.80;;;;;;6167776;23;20413;-79
2022/09/07 14:09:11;;;;;;;5.53;1.30;;;23.10;67.80;;;;;;6191373;23;20016;-81
2022/09/07 14:11:44;;;;;;;3.70;1.70;;;23.10;66.90;;;;;;6216371;23;20016;-78
2022/09/07 14:14:20;;;;;;;4.72;1.70;;;23.10;66.70;;;;;;6191318;23;20092;-77
2022/09/07 14:16:50;;;;;;;7.95;1.98;;;23.10;66.60;;;;;;6192041;23;20048;-76
2022/09/07 14:19:36;;;;;;;4.20;1.90;;;23.10;66.90;;;;;;6215743;23;20086;-77
2022/09/07 14:22:30;;;;;;;4.03;1.88;;;23.10;66.40;;;;;;6188759;23;20017;-81
2022/09/07 14:24:58;;;;;;;3.08;1.80;;;23.20;66.10;;;;;;6190750;23;20092;-80
2022/09/07 14:27:25;;;;;;;3.60;1.52;;;23.20;65.80;;;;;;6217244;23;20054;-79
2022/09/07 14:29:51;;;;;;;4.20;1.60;;;23.10;65.20;;;;;;6166339;23;20031;-81
2022/09/07 14:32:23;;;;;;;2.97;1.65;;;23.10;65.00;;;;;;6216660;23;20027;-80
2022/09/07 14:34:50;;;;;;;1.83;1.10;;;23.10;64.90;;;;;;6216638;23;20027;-79
2022/09/07 14:37:19;;;;;;;2.88;1.73;;;23.10;64.60;;;;;;6216594;23;20016;-82
2022/09/07 14:39:48;;;;;;;8.20;1.70;;;23.00;64.40;;;;;;6217169;23;20024;-80
2022/09/07 14:42:19;;;;;;;4.80;1.83;;;23.00;64.50;;;;;;6216402;23;20094;-81
2022/09/07 14:44:49;;;;;;;4.30;1.58;;;23.00;65.00;;;;;;6217612;23;20321;-80
2022/09/07 14:47:28;;;;;;;4.03;1.92;;;23.00;65.10;;;;;;6216323;23;20028;-79
2022/09/07 14:49:57;;;;;;;6.05;1.92;;;23.00;65.30;;;;;;6216346;23;20052;-80
2022/09/07 14:52:41;;;;;;;10.93;2.05;;;23.00;65.60;;;;;;6217622;23;20297;-78
2022/09/07 14:55:18;;;;;;;7.18;2.05;;;23.00;66.00;;;;;;6219108;23;20076;-74
2022/09/07 14:57:44;;;;;;;8.63;2.90;;;23.00;66.10;;;;;;6219303;23;20329;-78
2022/09/07 16:45:45;;;;;;;6.65;1.40;;;23.20;65.40;;;;;;6189054;23;20024;-78
2022/09/07 16:48:11;;;;;;;15.93;1.92;;;23.20;65.60;;;;;;6217146;23;20364;-79
2022/09/07 16:50:37;;;;;;;10.23;2.00;;;23.20;65.70;;;;;;6191194;23;20100;-78
2022/09/07 16:53:03;;;;;;;11.48;2.30;;;23.30;65.70;;;;;;6192471;23;20051;-78
2022/09/07 16:55:29;;;;;;;8.52;1.50;;;23.20;65.70;;;;;;6218374;23;20424;-79
2022/09/07 16:57:55;;;;;;;13.30;1.63;;;23.20;65.70;;;;;;6191989;23;20023;-78
2022/09/07 17:00:21;;;;;;;11.82;1.98;;;23.30;65.70;;;;;;6192220;23;20034;-78
2022/09/07 17:02:46;;;;;;;14.48;2.00;;;23.30;65.80;;;;;;6193141;23;20435;-79
2022/09/07 17:05:12;;;;;;;13.32;1.45;;;23.30;65.80;;;;;;6167324;23;20024;-78
2022/09/07 17:07:38;;;;;;;9.90;1.80;;;23.30;65.80;;;;;;6167593;23;20083;-78
2022/09/07 17:10:04;;;;;;;8.30;1.90;;;23.30;65.90;;;;;;6218284;23;20026;-81
2022/09/07 17:12:31;;;;;;;10.02;1.30;;;23.30;65.90;;;;;;6192398;23;20020;-79
2022/09/07 18:55:19;;;;;;;6.50;1.88;;;22.50;69.70;;;;;;6109801;22;1317479;-77
2022/09/07 18:57:45;;;;;;;3.47;2.35;;;22.50;69.50;;;;;;6165189;23;20453;-79
2022/09/07 19:00:12;;;;;;;3.08;2.03;;;22.40;69.40;;;;;;6138242;23;20436;-79
2022/09/07 19:02:38;;;;;;;5.47;2.42;;;22.40;69.70;;;;;;6159458;23;20018;-84
2022/09/07 19:05:04;;;;;;;2.60;2.00;;;22.20;70.00;;;;;;6134607;23;20052;-86
2022/09/07 19:07:31;;;;;;;3.33;1.98;;;22.20;70.30;;;;;;6133454;23;20017;-86
2022/09/07 19:09:57;;;;;;;3.50;2.15;;;22.10;70.60;;;;;;6132798;23;20017;-85
2022/09/07 19:12:23;;;;;;;4.45;2.08;;;22.00;70.80;;;;;;6134071;23;20024;-85
2022/09/07 19:14:52;;;;;;;4.45;2.00;;;22.00;71.10;;;;;;6159153;23;20025;-81
2022/09/07 19:17:18;;;;;;;3.67;2.00;;;21.90;71.40;;;;;;6133172;23;20445;-79
2022/09/07 19:19:47;;;;;;;3.35;2.55;;;21.80;71.50;;;;;;6133549;23;20017;-80
2022/09/07 19:22:13;;;;;;;6.65;2.45;;;21.80;71.60;;;;;;6159151;23;20005;-79
2022/09/07 19:24:39;;;;;;;4.50;2.40;;;21.80;71.80;;;;;;6157615;23;20172;-80
2022/09/07 19:27:06;;;;;;;4.30;2.28;;;21.80;72.00;;;;;;6133070;23;20017;-77
2022/09/07 19:29:31;;;;;;;3.55;2.55;;;21.70;72.00;;;;;;6159352;23;20123;-80
2022/09/07 19:32:03;;;;;;;3.30;2.80;;;21.70;72.20;;;;;;6158593;23;20014;-81
2022/09/07 19:34:37;;;;;;;4.65;2.78;;;21.70;72.50;;;;;;6157691;23;20477;-79
2022/09/07 19:37:04;;;;;;;3.40;3.03;;;21.60;72.60;;;;;;6159015;23;20024;-82
2022/09/07 19:39:30;;;;;;;4.93;3.78;;;21.60;73.30;;;;;;6158029;23;20017;-83
2022/09/07 19:41:56;;;;;;;5.15;3.35;;;21.60;72.70;;;;;;6133237;23;20021;-84
2022/09/07 19:44:22;;;;;;;4.65;3.72;;;21.60;72.80;;;;;;6133137;23;20017;-83
2022/09/07 19:46:48;;;;;;;5.00;4.40;;;21.60;72.90;;;;;;6132841;23;20018;-83
2022/09/07 19:49:14;;;;;;;5.07;4.57;;;21.50;73.00;;;;;;6157768;23;20017;-84
2022/09/07 19:51:41;;;;;;;5.88;4.90;;;21.50;73.10;;;;;;6133552;23;20310;-84
2022/09/07 19:54:11;;;;;;;5.53;4.95;;;21.50;73.20;;;;;;6158676;23;20310;-79
2022/09/07 19:56:38;;;;;;;6.07;5.47;;;21.50;73.20;;;;;;6157146;23;20029;-80
2022/09/07 19:59:04;;;;;;;7.03;6.43;;;21.50;73.30;;;;;;6158565;23;20017;-79
2022/09/07 20:01:30;;;;;;;8.55;6.97;;;21.50;73.60;;;;;;6158261;23;20449;-78
2022/09/07 20:03:58;;;;;;;8.43;6.85;;;21.40;73.70;;;;;;6158750;23;20093;-80
2022/09/07 20:06:25;;;;;;;7.60;6.93;;;21.40;73.80;;;;;;6157627;23;20358;-80
2022/09/07 20:08:51;;;;;;;7.40;6.70;;;21.40;74.00;;;;;;6159453;23;20343;-78
2022/09/07 20:11:17;;;;;;;7.40;6.80;;;21.40;74.00;;;;;;6159339;23;20017;-78
2022/09/07 20:13:43;;;;;;;7.47;6.82;;;21.40;74.20;;;;;;6158504;23;20021;-78
2022/09/07 20:16:12;;;;;;;8.68;7.72;;;21.30;74.30;;;;;;6159382;23;20021;-79
2022/09/07 20:18:39;;;;;;;8.23;6.95;;;21.30;74.40;;;;;;6156972;23;20017;-78
2022/09/07 20:26:02;;;;;;;;;;;;;;;;;;;;;
2022/09/07 20:41:09;;;;;;;8.57;7.78;;;21.20;74.60;;;;;;5926933;24;20131;-76
2022/09/07 20:44:04;;;;;;;9.73;8.70;;;21.20;74.90;;;;;;5902027;24;20017;-78
2022/09/07 20:46:42;;;;;;;9.23;8.38;;;21.20;74.90;;;;;;5912557;23;20020;-78
2022/09/07 20:49:33;;;;;;;9.02;8.23;;;21.20;75.00;;;;;;6044382;23;20011;-77
2022/09/07 20:52:18;;;;;;;;;;;21.20;74.90;;;;;;6157726;23;20013;-77
2022/09/07 20:54:43;;;;;;;8.77;7.88;;;21.20;74.90;;;;;;6154248;23;19916;-79
